Time;durP1;ratioP1;P1;durP2;ratioP2;P2;SDS_P1;SDS_P2;PMS_P1;PMS_P2;Temp;Humidity;BMP_temperature;BMP_pressure;BME280_temperature;BME280_humidity;BME280_pressure;Samples;Min_cycle;Max_cycle;Signal;HPM_P1;HPM_P2
2022/10/20 00:01:58;;;;;;;12.40;8.93;;;11.30;99.90;;;;;;5134716;27;20688;-74
2022/10/20 00:04:24;;;;;;;10.50;8.37;;;11.20;99.90;;;;;;5116343;28;20516;-74
2022/10/20 00:06:49;;;;;;;12.03;7.93;;;11.20;99.90;;;;;;5116381;28;20175;-74
2022/10/20 00:09:15;;;;;;;8.47;6.73;;;11.20;99.90;;;;;;5134658;28;20179;-73
2022/10/20 00:11:41;;;;;;;12.30;8.80;;;11.10;99.90;;;;;;5134858;28;20641;-74
2022/10/20 00:14:07;;;;;;;11.73;8.32;;;11.10;99.90;;;;;;5116097;28;20627;-73
2022/10/20 00:16:36;;;;;;;13.67;8.80;;;11.00;99.90;;;;;;5134632;28;20175;-73
2022/10/20 00:19:02;;;;;;;16.38;10.07;;;11.00;99.90;;;;;;5134554;28;20171;-74
2022/10/20 00:21:28;;;;;;;10.02;7.28;;;11.00;99.90;;;;;;5134379;28;20277;-73
2022/10/20 00:23:54;;;;;;;9.30;7.78;;;10.90;99.90;;;;;;5115844;28;20234;-74
2022/10/20 00:26:25;;;;;;;13.65;7.93;;;10.90;99.90;;;;;;5115825;28;20191;-73
2022/10/20 00:28:51;;;;;;;13.10;8.15;;;10.80;99.90;;;;;;5134532;28;20159;-74
2022/10/20 00:31:19;;;;;;;11.10;8.00;;;10.80;99.90;;;;;;5134900;28;20199;-74
2022/10/20 00:33:46;;;;;;;10.57;7.88;;;10.80;99.90;;;;;;5116041;28;20211;-74
2022/10/20 00:36:14;;;;;;;12.65;8.30;;;10.70;99.90;;;;;;5134778;28;20195;-74
2022/10/20 00:38:40;;;;;;;11.68;8.55;;;10.70;99.90;;;;;;5134327;28;20213;-74
2022/10/20 00:41:07;;;;;;;11.70;7.68;;;10.60;99.90;;;;;;5116040;28;21110;-74
2022/10/20 00:43:59;;;;;;;11.35;7.78;;;10.60;99.90;;;;;;5134364;28;20189;-73
2022/10/20 00:46:27;;;;;;;14.90;7.50;;;10.60;99.90;;;;;;5115749;28;20199;-73
2022/10/20 00:49:06;;;;;;;9.73;7.47;;;10.60;99.90;;;;;;5134314;28;20191;-73
2022/10/20 00:51:33;;;;;;;10.60;8.05;;;10.60;99.90;;;;;;5118568;27;20226;-74
2022/10/20 00:54:08;;;;;;;11.60;8.20;;;10.60;99.90;;;;;;5119606;27;20356;-74
2022/10/20 00:56:38;;;;;;;11.98;7.60;;;10.50;99.90;;;;;;5138131;27;20163;-73
2022/10/20 00:59:04;;;;;;;10.65;7.65;;;10.50;99.90;;;;;;5119648;27;20624;-73
2022/10/20 01:01:30;;;;;;;11.27;7.72;;;10.40;99.90;;;;;;5119622;27;20671;-74
2022/10/20 01:03:56;;;;;;;12.90;8.07;;;10.40;99.90;;;;;;5119554;27;20204;-74
2022/10/20 01:06:22;;;;;;;11.35;7.57;;;10.30;99.90;;;;;;5137775;27;20562;-73
2022/10/20 01:08:51;;;;;;;14.97;8.90;;;10.30;99.90;;;;;;5137894;27;20183;-74
2022/10/20 01:12:16;;;;;;;15.13;8.52;;;10.20;99.90;;;;;;5138329;27;20643;-73
2022/10/20 01:15:10;;;;;;;11.85;6.82;;;10.20;99.90;;;;;;5029625;27;20218;-73
2022/10/20 01:17:43;;;;;;;9.50;7.00;;;10.20;99.90;;;;;;5137752;27;20290;-74
2022/10/20 01:20:38;;;;;;;15.32;7.68;;;10.10;99.90;;;;;;5137786;27;20682;-74
2022/10/20 01:23:27;;;;;;;16.65;8.60;;;10.10;99.90;;;;;;5137656;27;20159;-74
2022/10/20 01:26:11;;;;;;;10.75;7.82;;;10.00;99.90;;;;;;5137826;27;20541;-74
2022/10/20 01:29:12;;;;;;;10.10;7.63;;;10.00;99.90;;;;;;5137562;27;20195;-73
2022/10/20 01:32:03;;;;;;;12.23;8.23;;;10.00;99.90;;;;;;5137553;27;20168;-74
2022/10/20 01:34:55;;;;;;;12.02;7.18;;;9.90;99.90;;;;;;5118947;27;20203;-74
2022/10/20 01:37:32;;;;;;;15.27;8.32;;;9.90;99.90;;;;;;5118709;27;20287;-74
2022/10/20 01:40:05;;;;;;;11.27;7.75;;;9.80;99.90;;;;;;5118848;27;20210;-74
2022/10/20 01:42:31;;;;;;;12.88;7.70;;;9.80;99.90;;;;;;5118834;27;20190;-73
2022/10/20 01:45:01;;;;;;;11.03;8.10;;;9.80;99.90;;;;;;5118760;27;20203;-74
2022/10/20 01:47:28;;;;;;;11.15;7.45;;;9.80;99.90;;;;;;5137012;27;20523;-74
2022/10/20 01:49:56;;;;;;;11.02;7.78;;;9.70;99.90;;;;;;5118993;27;20202;-74
2022/10/20 01:52:22;;;;;;;11.02;8.02;;;9.70;99.90;;;;;;5118708;27;20167;-74
2022/10/20 01:54:48;;;;;;;13.32;7.30;;;9.70;99.90;;;;;;5137092;27;20289;-74
2022/10/20 01:57:40;;;;;;;12.17;8.17;;;9.60;99.90;;;;;;5118541;27;20343;-74
2022/10/20 02:00:12;;;;;;;10.48;7.30;;;9.60;99.90;;;;;;5118490;27;20210;-74
2022/10/20 02:03:05;;;;;;;12.48;8.73;;;9.60;99.90;;;;;;5117286;27;20606;-73
2022/10/20 02:06:06;;;;;;;17.00;7.70;;;9.60;99.90;;;;;;5137056;27;20258;-74
2022/10/20 02:08:45;;;;;;;12.57;7.60;;;9.50;99.90;;;;;;5045465;27;20186;-74
2022/10/20 02:11:23;;;;;;;12.95;8.52;;;9.50;99.90;;;;;;5118383;27;20290;-75
2022/10/20 02:13:50;;;;;;;11.77;8.30;;;9.50;99.90;;;;;;5118387;27;20624;-74
2022/10/20 02:16:24;;;;;;;12.05;8.55;;;9.50;99.90;;;;;;5118304;27;20210;-74
2022/10/20 02:18:50;;;;;;;13.15;7.95;;;9.40;99.90;;;;;;5136601;27;20206;-74
2022/10/20 02:21:16;;;;;;;11.15;7.72;;;9.40;99.90;;;;;;5136288;27;20203;-74
2022/10/20 02:23:45;;;;;;;8.63;7.00;;;9.40;99.90;;;;;;5117860;27;20182;-73
2022/10/20 02:26:14;;;;;;;13.98;7.65;;;9.30;99.90;;;;;;5118016;27;20256;-73
2022/10/20 02:28:45;;;;;;;11.90;9.00;;;9.30;99.90;;;;;;5136365;27;20639;-73
2022/10/20 02:31:10;;;;;;;11.65;7.70;;;9.30;99.90;;;;;;5136763;27;20652;-73
2022/10/20 02:33:37;;;;;;;18.27;9.37;;;9.30;99.90;;;;;;5136279;27;20186;-73
2022/10/20 02:36:05;;;;;;;10.70;7.75;;;9.30;99.90;;;;;;5117949;27;20298;-74
2022/10/20 02:38:31;;;;;;;11.48;8.35;;;9.20;99.90;;;;;;5117667;27;20679;-74
2022/10/20 02:40:56;;;;;;;11.73;7.73;;;9.20;99.90;;;;;;5136568;27;20248;-73
2022/10/20 02:43:22;;;;;;;10.90;7.53;;;9.20;99.90;;;;;;5117784;27;20170;-74
2022/10/20 02:45:47;;;;;;;11.13;8.40;;;9.20;99.90;;;;;;5117745;27;20224;-74
2022/10/20 02:48:13;;;;;;;10.07;7.40;;;9.20;99.90;;;;;;5117373;27;20282;-73
2022/10/20 02:50:39;;;;;;;13.23;8.87;;;9.20;99.90;;;;;;5136210;27;20279;-73
2022/10/20 02:53:05;;;;;;;11.40;8.60;;;9.20;99.90;;;;;;5135954;27;20174;-73
2022/10/20 02:55:30;;;;;;;12.85;7.80;;;9.20;99.90;;;;;;5136100;27;20203;-73
2022/10/20 02:57:56;;;;;;;12.10;8.40;;;9.20;99.90;;;;;;5135730;27;20715;-73
2022/10/20 03:00:22;;;;;;;14.90;9.30;;;9.10;99.90;;;;;;5117391;27;20455;-73
2022/10/20 03:02:48;;;;;;;15.88;8.20;;;9.10;99.90;;;;;;5135751;27;20171;-74
2022/10/20 03:05:15;;;;;;;10.57;7.17;;;9.10;99.90;;;;;;5135719;27;20564;-73
2022/10/20 03:07:40;;;;;;;12.55;8.75;;;9.10;99.90;;;;;;5135417;27;20205;-73
2022/10/20 03:10:07;;;;;;;11.87;8.10;;;9.10;99.90;;;;;;5117178;27;20562;-73
2022/10/20 03:12:33;;;;;;;11.98;8.10;;;9.10;99.90;;;;;;5117044;27;20190;-73
2022/10/20 03:14:58;;;;;;;15.33;9.60;;;9.10;99.90;;;;;;5135200;27;20195;-73
2022/10/20 03:17:24;;;;;;;11.00;8.30;;;9.10;99.90;;;;;;5135371;27;20215;-73
2022/10/20 03:19:50;;;;;;;15.30;10.07;;;9.00;99.90;;;;;;5116952;27;20202;-73
2022/10/20 03:22:15;;;;;;;15.00;8.80;;;9.00;99.90;;;;;;5135268;27;20210;-73
2022/10/20 03:24:41;;;;;;;11.67;8.13;;;9.00;99.90;;;;;;5116706;27;20239;-73
2022/10/20 03:27:06;;;;;;;11.77;8.47;;;9.00;99.90;;;;;;5135094;27;20160;-73
2022/10/20 03:29:32;;;;;;;10.23;7.23;;;9.00;99.90;;;;;;5116793;27;20203;-73
2022/10/20 03:31:58;;;;;;;12.70;8.70;;;9.00;99.90;;;;;;5116750;27;20181;-74
2022/10/20 03:34:23;;;;;;;11.57;7.77;;;9.00;99.90;;;;;;5135258;27;20175;-74
2022/10/20 03:36:49;;;;;;;16.57;8.37;;;9.00;99.90;;;;;;5135089;27;20236;-73
2022/10/20 03:39:15;;;;;;;9.50;7.80;;;9.00;99.90;;;;;;5134753;27;20243;-73
2022/10/20 03:41:40;;;;;;;14.97;9.70;;;9.00;99.90;;;;;;5134808;27;20654;-75
2022/10/20 03:44:06;;;;;;;12.23;9.27;;;9.00;99.90;;;;;;5134842;27;20241;-74
2022/10/20 03:46:31;;;;;;;11.83;8.67;;;9.10;99.90;;;;;;5134991;27;20167;-74
2022/10/20 03:48:57;;;;;;;11.47;8.67;;;9.20;99.90;;;;;;5116288;27;20171;-74
2022/10/20 03:51:23;;;;;;;11.80;8.90;;;9.20;99.90;;;;;;5116385;27;20664;-74
2022/10/20 03:53:48;;;;;;;18.77;12.40;;;9.30;99.90;;;;;;5134901;27;20167;-74
2022/10/20 03:56:18;;;;;;;19.73;8.47;;;9.30;99.90;;;;;;5134668;27;20256;-73
2022/10/20 03:58:44;;;;;;;12.95;8.68;;;9.30;99.90;;;;;;5134803;27;20195;-74
2022/10/20 04:01:19;;;;;;;14.52;9.25;;;9.40;99.90;;;;;;5135151;27;20195;-74
2022/10/20 04:03:45;;;;;;;12.48;8.48;;;9.40;99.90;;;;;;5134775;28;20568;-74
2022/10/20 04:06:14;;;;;;;19.87;8.17;;;9.40;99.90;;;;;;5135079;28;20210;-73
2022/10/20 04:08:40;;;;;;;11.52;8.57;;;9.40;99.90;;;;;;5116107;28;20415;-74
2022/10/20 04:11:05;;;;;;;11.57;8.47;;;9.50;99.90;;;;;;5116371;28;20290;-74
2022/10/20 04:13:31;;;;;;;13.10;9.77;;;9.50;99.90;;;;;;5134682;28;20392;-74
2022/10/20 04:15:57;;;;;;;16.43;8.90;;;9.50;99.90;;;;;;5135103;28;20199;-74
2022/10/20 04:18:23;;;;;;;13.13;8.40;;;9.50;99.90;;;;;;5134582;28;20884;-74
2022/10/20 04:20:48;;;;;;;11.40;7.50;;;9.60;99.90;;;;;;5116272;28;20246;-73
2022/10/20 04:23:14;;;;;;;9.87;7.80;;;9.60;99.90;;;;;;5134378;28;20249;-74
2022/10/20 04:25:47;;;;;;;11.03;8.33;;;9.70;99.90;;;;;;5135958;27;20234;-73
2022/10/20 04:28:14;;;;;;;11.93;8.10;;;9.70;99.90;;;;;;5138541;27;20519;-73
2022/10/20 04:30:41;;;;;;;12.73;8.05;;;9.80;99.90;;;;;;5138893;27;20202;-73
2022/10/20 04:33:07;;;;;;;12.38;7.78;;;9.90;99.90;;;;;;5119683;27;20243;-73
2022/10/20 04:35:33;;;;;;;10.10;8.43;;;10.00;99.90;;;;;;5138822;27;20198;-74
2022/10/20 04:37:58;;;;;;;12.27;8.40;;;10.00;99.90;;;;;;5136085;27;20575;-74
2022/10/20 04:40:24;;;;;;;80.40;41.87;;;10.00;99.90;;;;;;5138061;27;20935;-73
2022/10/20 04:42:49;;;;;;;16.70;11.83;;;10.00;99.90;;;;;;5119054;27;20175;-74
2022/10/20 04:45:15;;;;;;;12.63;9.00;;;10.00;99.90;;;;;;5137843;27;20202;-73
2022/10/20 04:47:40;;;;;;;10.93;7.80;;;10.00;99.90;;;;;;5136350;27;20614;-73
2022/10/20 04:50:07;;;;;;;10.40;6.63;;;10.00;99.90;;;;;;5136353;27;20635;-71
2022/10/20 04:52:32;;;;;;;9.80;7.00;;;9.90;99.90;;;;;;5117168;27;20270;-75
2022/10/20 04:54:58;;;;;;;11.90;7.07;;;9.90;99.90;;;;;;5138153;27;20241;-74
2022/10/20 04:57:24;;;;;;;11.67;7.37;;;9.90;99.90;;;;;;5137947;27;20198;-74
2022/10/20 04:59:49;;;;;;;11.37;7.33;;;9.80;99.90;;;;;;5119261;27;20199;-73
2022/10/20 05:02:15;;;;;;;10.57;7.37;;;9.80;99.90;;;;;;5135695;27;20670;-72
2022/10/20 05:04:41;;;;;;;10.80;8.27;;;9.80;99.90;;;;;;5136850;27;20195;-72
2022/10/20 05:07:06;;;;;;;13.70;8.30;;;9.70;99.90;;;;;;5117506;27;20269;-72
2022/10/20 05:09:32;;;;;;;11.60;8.20;;;9.70;99.90;;;;;;5137357;27;20435;-73
2022/10/20 05:11:58;;;;;;;13.13;8.87;;;9.70;99.90;;;;;;5137463;27;20317;-72
2022/10/20 05:14:24;;;;;;;9.63;8.50;;;9.60;99.90;;;;;;5137541;27;20442;-73
2022/10/20 05:16:50;;;;;;;11.27;7.60;;;9.60;99.90;;;;;;5117501;27;20772;-72
2022/10/20 05:19:16;;;;;;;12.68;8.32;;;9.60;99.90;;;;;;5137609;27;20664;-74
2022/10/20 05:21:42;;;;;;;13.75;9.85;;;9.50;99.90;;;;;;5118953;27;20175;-72
2022/10/20 05:24:13;;;;;;;18.50;11.13;;;9.50;99.90;;;;;;5135460;27;20214;-74
2022/10/20 05:26:39;;;;;;;16.25;10.68;;;9.50;99.90;;;;;;5137301;27;20166;-73
2022/10/20 05:29:06;;;;;;;14.20;8.50;;;9.40;99.90;;;;;;5117290;27;20179;-73
2022/10/20 05:31:36;;;;;;;17.05;10.43;;;9.40;99.90;;;;;;5117569;27;20171;-73
2022/10/20 05:34:02;;;;;;;17.20;11.50;;;9.30;99.90;;;;;;5118962;27;20224;-73
2022/10/20 05:36:27;;;;;;;11.97;9.70;;;9.30;99.90;;;;;;5137032;27;20667;-73
2022/10/20 05:38:54;;;;;;;16.30;10.33;;;9.30;99.90;;;;;;5136409;27;20206;-73
2022/10/20 05:41:22;;;;;;;19.88;12.32;;;9.30;99.90;;;;;;5116369;27;20683;-74
2022/10/20 05:43:49;;;;;;;26.05;16.65;;;9.30;99.90;;;;;;5134719;27;20212;-74
2022/10/20 05:46:15;;;;;;;27.48;15.48;;;9.30;99.90;;;;;;5114251;27;20206;-73
2022/10/20 05:48:41;;;;;;;28.23;15.93;;;9.30;99.90;;;;;;5113286;27;20179;-75
2022/10/20 05:51:15;;;;;;;24.73;14.33;;;9.30;99.90;;;;;;5132162;27;20588;-73
2022/10/20 05:53:41;;;;;;;21.35;13.90;;;9.30;99.90;;;;;;5131668;27;20731;-75
2022/10/20 05:56:09;;;;;;;20.38;11.57;;;9.40;99.90;;;;;;5113683;27;20577;-74
2022/10/20 05:58:35;;;;;;;15.63;10.50;;;9.40;99.90;;;;;;5132811;27;20198;-74
2022/10/20 06:01:17;;;;;;;13.75;9.07;;;9.50;99.90;;;;;;5114321;27;20561;-74
2022/10/20 06:03:53;;;;;;;13.10;8.93;;;9.50;99.90;;;;;;5106376;27;20183;-73
2022/10/20 06:06:20;;;;;;;12.13;8.75;;;9.50;99.90;;;;;;5122916;27;20203;-72
2022/10/20 06:08:46;;;;;;;14.05;9.57;;;9.50;99.90;;;;;;5125797;27;20184;-74
2022/10/20 06:11:13;;;;;;;17.70;9.70;;;9.50;99.90;;;;;;5124358;27;20243;-74
2022/10/20 06:13:39;;;;;;;16.35;10.27;;;9.50;99.90;;;;;;5107492;27;20259;-73
2022/10/20 06:16:10;;;;;;;23.30;11.50;;;9.50;99.90;;;;;;5123106;27;20294;-72
2022/10/20 06:18:39;;;;;;;14.30;8.98;;;9.60;99.90;;;;;;5108084;27;20812;-74
2022/10/20 06:21:14;;;;;;;14.27;8.93;;;9.60;99.90;;;;;;5124986;27;20195;-73
2022/10/20 06:23:40;;;;;;;12.77;8.27;;;9.70;99.90;;;;;;5115394;27;20201;-73
2022/10/20 06:26:16;;;;;;;11.50;8.07;;;9.70;99.90;;;;;;5126850;27;20191;-75
2022/10/20 06:28:43;;;;;;;8.88;7.38;;;9.80;99.90;;;;;;5140915;27;20175;-72
2022/10/20 06:31:15;;;;;;;10.90;6.75;;;9.90;99.90;;;;;;5133819;27;20679;-74
2022/10/20 06:33:44;;;;;;;10.98;6.28;;;10.00;99.90;;;;;;5127947;27;20168;-74
2022/10/20 06:36:11;;;;;;;8.68;6.22;;;10.10;99.90;;;;;;5107036;27;20247;-75
2022/10/20 06:38:37;;;;;;;8.57;6.57;;;10.20;99.90;;;;;;5134357;27;20223;-74
2022/10/20 06:41:09;;;;;;;7.38;6.50;;;10.30;99.90;;;;;;5134134;27;20195;-73
2022/10/20 06:43:35;;;;;;;8.27;6.90;;;10.40;99.90;;;;;;5116725;27;20316;-73
2022/10/20 06:46:03;;;;;;;11.03;7.07;;;10.50;99.90;;;;;;5135406;27;20240;-76
2022/10/20 06:48:30;;;;;;;8.10;5.70;;;10.60;99.90;;;;;;5114540;27;20490;-75
2022/10/20 06:51:01;;;;;;;9.25;6.43;;;10.70;99.90;;;;;;5114242;27;20210;-76
2022/10/20 06:53:29;;;;;;;7.93;5.85;;;10.90;99.90;;;;;;5113221;27;20171;-74
2022/10/20 06:56:05;;;;;;;8.10;6.18;;;11.00;99.90;;;;;;5120484;27;20263;-71
2022/10/20 06:58:31;;;;;;;8.90;6.25;;;11.10;99.90;;;;;;5136474;27;20203;-73
2022/10/20 07:01:04;;;;;;;9.70;6.25;;;11.20;99.90;;;;;;5112841;27;20191;-72
2022/10/20 07:03:31;;;;;;;7.80;6.20;;;11.30;99.90;;;;;;5133085;27;20159;-73
2022/10/20 07:05:58;;;;;;;6.05;5.30;;;11.40;99.90;;;;;;5113456;27;20283;-73
2022/10/20 07:08:27;;;;;;;13.85;8.23;;;11.50;99.90;;;;;;5116208;27;20532;-72
2022/10/20 07:10:59;;;;;;;18.92;14.18;;;11.70;99.90;;;;;;5116356;27;20207;-72
2022/10/20 07:13:25;;;;;;;8.40;7.60;;;11.80;99.90;;;;;;5133439;27;20217;-75
2022/10/20 07:15:55;;;;;;;6.97;6.38;;;12.00;99.90;;;;;;5130080;27;20211;-73
2022/10/20 07:18:21;;;;;;;7.78;6.30;;;12.10;99.90;;;;;;5122859;27;20550;-75
2022/10/20 07:20:47;;;;;;;6.30;5.80;;;12.30;99.90;;;;;;5120086;27;20192;-74
2022/10/20 07:23:12;;;;;;;10.20;8.90;;;12.40;99.90;;;;;;5108774;27;20785;-75
2022/10/20 07:25:38;;;;;;;8.30;5.80;;;12.60;99.90;;;;;;5113512;27;20310;-75
2022/10/20 07:28:03;;;;;;;9.00;8.07;;;12.80;99.90;;;;;;5131908;27;20175;-75
2022/10/20 07:30:29;;;;;;;5.13;4.67;;;13.00;99.90;;;;;;5115469;27;20210;-74
2022/10/20 07:32:55;;;;;;;6.00;5.23;;;13.20;99.90;;;;;;5134742;27;20205;-75
2022/10/20 07:35:20;;;;;;;9.13;6.07;;;13.40;99.90;;;;;;5128421;27;20243;-75
2022/10/20 07:37:46;;;;;;;7.10;5.00;;;13.70;99.90;;;;;;5133596;27;20620;-74
2022/10/20 07:40:12;;;;;;;6.60;4.87;;;14.10;99.90;;;;;;5135602;27;20738;-74
2022/10/20 07:42:37;;;;;;;4.40;4.00;;;14.60;99.90;;;;;;5104463;28;20195;-75
2022/10/20 07:45:03;;;;;;;28.77;20.40;;;15.20;99.90;;;;;;5120172;27;20214;-74
2022/10/20 07:47:29;;;;;;;269.13;160.10;;;15.90;99.90;;;;;;5123939;27;20569;-74
2022/10/20 07:49:55;;;;;;;40.87;33.40;;;16.70;99.90;;;;;;5104785;27;20443;-74
2022/10/20 07:52:20;;;;;;;11.97;10.80;;;17.60;99.90;;;;;;5107521;27;20302;-72
2022/10/20 07:54:46;;;;;;;10.57;9.57;;;18.50;99.90;;;;;;5104818;28;20747;-72
2022/10/20 07:57:12;;;;;;;9.60;8.60;;;19.50;99.90;;;;;;5136812;27;20203;-72
2022/10/20 07:59:37;;;;;;;3.67;3.37;;;20.30;99.90;;;;;;5113838;27;20212;-73
2022/10/20 08:02:03;;;;;;;2.67;2.47;;;21.10;99.90;;;;;;5125375;27;20925;-73
2022/10/20 08:04:30;;;;;;;4.40;4.00;;;21.70;99.30;;;;;;5125985;27;20203;-72
2022/10/20 08:06:56;;;;;;;2.33;2.13;;;22.30;98.40;;;;;;5133979;27;20674;-72
2022/10/20 08:09:22;;;;;;;3.73;2.83;;;22.90;96.50;;;;;;5123739;28;20446;-73
2022/10/20 08:11:48;;;;;;;3.07;2.77;;;23.40;94.40;;;;;;5120027;28;20453;-73
2022/10/20 08:14:14;;;;;;;2.53;1.87;;;23.90;93.60;;;;;;5107165;28;20530;-73
2022/10/20 08:16:40;;;;;;;2.00;1.87;;;24.30;92.80;;;;;;5106621;28;20407;-72
2022/10/20 08:19:06;;;;;;;2.07;1.83;;;24.70;91.50;;;;;;5122637;28;20571;-73
2022/10/20 08:21:31;;;;;;;2.50;2.20;;;25.20;89.80;;;;;;5103222;28;20179;-72
2022/10/20 08:23:57;;;;;;;1.80;1.70;;;25.60;85.60;;;;;;5121515;28;20463;-73
2022/10/20 08:26:24;;;;;;;2.17;1.97;;;25.90;84.90;;;;;;5128956;28;20684;-73
2022/10/20 08:28:52;;;;;;;1.97;1.77;;;26.20;82.50;;;;;;5126634;28;20714;-72
2022/10/20 08:31:18;;;;;;;3.70;2.00;;;26.50;77.70;;;;;;5098272;28;20461;-73
2022/10/20 08:33:45;;;;;;;2.10;1.90;;;26.70;74.80;;;;;;5127308;28;20413;-72
2022/10/20 08:36:13;;;;;;;1.57;1.47;;;26.80;72.70;;;;;;5124677;28;20432;-76
2022/10/20 08:38:40;;;;;;;2.10;1.93;;;26.90;72.10;;;;;;5121622;28;20456;-75
2022/10/20 08:41:18;;;;;;;1.80;1.70;;;26.90;70.60;;;;;;5126906;27;20481;-75
2022/10/20 08:43:50;;;;;;;4.97;1.67;;;26.60;71.10;;;;;;5098990;28;20796;-74
2022/10/20 08:46:22;;;;;;;2.73;2.17;;;26.20;70.90;;;;;;5122997;27;20486;-75
2022/10/20 08:48:49;;;;;;;3.30;1.90;;;25.70;71.80;;;;;;5120171;28;20734;-76
2022/10/20 08:51:23;;;;;;;2.73;2.00;;;25.30;71.80;;;;;;5122636;28;20503;-75
2022/10/20 08:54:00;;;;;;;1.90;1.80;;;24.90;72.10;;;;;;5124507;28;20428;-75
2022/10/20 08:56:29;;;;;;;1.73;1.63;;;24.40;72.30;;;;;;5102843;28;20469;-74
2022/10/20 08:58:55;;;;;;;2.40;1.90;;;24.00;73.60;;;;;;5099197;28;20532;-74
2022/10/20 09:01:29;;;;;;;2.20;2.00;;;23.50;74.40;;;;;;5120565;28;20467;-74
2022/10/20 09:04:03;;;;;;;2.40;2.20;;;23.00;75.40;;;;;;5126774;28;20411;-76
2022/10/20 09:06:29;;;;;;;1.70;1.60;;;22.40;76.60;;;;;;5117322;28;21042;-74
2022/10/20 09:08:56;;;;;;;2.43;2.20;;;21.90;77.00;;;;;;5129508;28;20424;-75
2022/10/20 09:11:35;;;;;;;2.73;2.30;;;21.40;78.00;;;;;;5112504;27;20464;-76
2022/10/20 09:14:01;;;;;;;2.10;1.90;;;20.90;79.50;;;;;;5112267;27;20461;-75
2022/10/20 09:16:32;;;;;;;2.20;2.03;;;20.40;80.70;;;;;;5130812;27;20478;-74
2022/10/20 09:19:00;;;;;;;3.30;1.80;;;20.00;81.80;;;;;;5135834;27;20472;-74
2022/10/20 09:21:27;;;;;;;3.53;2.60;;;19.60;82.40;;;;;;5116468;27;20461;-75
2022/10/20 09:23:57;;;;;;;5.30;2.80;;;19.40;83.20;;;;;;5135605;27;20821;-75
2022/10/20 09:26:32;;;;;;;2.40;2.20;;;19.10;84.30;;;;;;5134922;27;20520;-75
2022/10/20 09:29:05;;;;;;;3.83;3.23;;;18.90;84.80;;;;;;5096874;27;20540;-75
2022/10/20 09:31:40;;;;;;;3.43;3.13;;;18.90;85.40;;;;;;5132667;27;20436;-75
2022/10/20 09:34:29;;;;;;;2.87;2.60;;;18.70;85.80;;;;;;5112223;27;20435;-74
2022/10/20 09:37:07;;;;;;;3.60;2.97;;;18.60;85.80;;;;;;5105543;27;20641;-74
2022/10/20 09:39:53;;;;;;;4.70;3.70;;;18.70;86.30;;;;;;5112180;27;20998;-73
2022/10/20 09:42:32;;;;;;;2.63;2.43;;;18.90;86.30;;;;;;5125514;27;20501;-74
2022/10/20 09:44:58;;;;;;;2.80;2.60;;;18.90;86.10;;;;;;5129599;27;20589;-75
2022/10/20 09:47:27;;;;;;;3.13;2.80;;;18.80;85.90;;;;;;5128877;27;20899;-73
2022/10/20 09:50:02;;;;;;;2.87;2.67;;;18.60;86.40;;;;;;5130831;27;20200;-75
2022/10/20 09:52:33;;;;;;;4.60;3.33;;;18.50;86.40;;;;;;5131169;27;20482;-74
2022/10/20 09:55:03;;;;;;;2.97;2.73;;;18.30;85.90;;;;;;5120197;27;20563;-73
2022/10/20 09:57:30;;;;;;;3.60;3.30;;;18.10;86.80;;;;;;5128736;27;20990;-72
2022/10/20 09:59:57;;;;;;;2.80;2.60;;;17.90;88.00;;;;;;5122086;27;20533;-73
2022/10/20 10:02:22;;;;;;;3.17;2.67;;;17.80;88.60;;;;;;5127315;27;20434;-74
2022/10/20 10:04:51;;;;;;;2.53;2.20;;;17.70;89.00;;;;;;5128357;27;20807;-73
2022/10/20 10:07:25;;;;;;;2.90;2.57;;;17.70;89.40;;;;;;5130943;27;20187;-74
2022/10/20 10:10:22;;;;;;;2.83;2.40;;;17.60;89.50;;;;;;5124551;27;20448;-75
2022/10/20 10:12:54;;;;;;;2.87;2.67;;;17.60;89.50;;;;;;5094825;27;20457;-74
2022/10/20 10:15:22;;;;;;;2.90;2.70;;;17.60;90.20;;;;;;5109642;27;21225;-74
2022/10/20 10:17:49;;;;;;;4.00;3.33;;;17.60;90.20;;;;;;5110753;27;20889;-74
2022/10/20 10:20:17;;;;;;;3.97;3.67;;;17.60;90.10;;;;;;5128303;27;20442;-74
2022/10/20 10:22:43;;;;;;;3.73;3.30;;;17.60;90.00;;;;;;5127970;27;20530;-73
2022/10/20 10:25:26;;;;;;;2.80;2.60;;;17.60;90.20;;;;;;5128627;27;20527;-73
2022/10/20 10:27:59;;;;;;;2.60;2.40;;;17.50;90.50;;;;;;5124982;27;21046;-74
2022/10/20 10:30:34;;;;;;;7.30;4.00;;;17.50;90.60;;;;;;5127577;27;20984;-72
2022/10/20 10:33:00;;;;;;;5.73;3.07;;;17.50;90.40;;;;;;5123206;27;20430;-74
2022/10/20 10:35:34;;;;;;;3.30;3.00;;;17.60;90.40;;;;;;5119777;27;20443;-73
2022/10/20 10:38:00;;;;;;;2.60;2.40;;;17.50;90.30;;;;;;5123897;27;20463;-73
2022/10/20 10:41:10;;;;;;;3.23;2.93;;;17.50;90.30;;;;;;5127199;27;20427;-73
2022/10/20 10:44:01;;;;;;;2.73;2.43;;;17.50;90.20;;;;;;5110505;27;20912;-73
2022/10/20 10:46:35;;;;;;;3.87;2.93;;;17.40;90.70;;;;;;5119464;27;20797;-73
2022/10/20 10:49:26;;;;;;;2.70;2.50;;;17.40;90.10;;;;;;5098338;27;20411;-75
2022/10/20 10:52:22;;;;;;;4.43;2.63;;;17.40;90.30;;;;;;5119221;27;20423;-75
2022/10/20 10:57:54;;;;;;;3.93;3.00;;;17.30;90.10;;;;;;5122052;27;20565;-75
2022/10/20 11:00:33;;;;;;;3.10;2.20;;;17.30;90.30;;;;;;5118862;27;20447;-74
2022/10/20 11:03:02;;;;;;;2.03;1.93;;;17.30;90.60;;;;;;5100275;27;20471;-74
2022/10/20 11:05:53;;;;;;;2.97;2.23;;;17.30;90.60;;;;;;5113801;27;20436;-74
2022/10/20 11:08:44;;;;;;;2.43;2.20;;;17.40;90.40;;;;;;5118837;27;20523;-74
2022/10/20 11:11:34;;;;;;;2.70;2.50;;;17.40;90.50;;;;;;5109031;27;20488;-74
2022/10/20 11:14:21;;;;;;;2.57;2.20;;;17.40;90.60;;;;;;5115567;27;20435;-73
2022/10/20 11:16:57;;;;;;;2.30;2.10;;;17.40;90.50;;;;;;5119601;27;20828;-74
2022/10/20 11:19:38;;;;;;;2.90;2.47;;;17.50;90.70;;;;;;5118758;27;20450;-74
2022/10/20 11:22:18;;;;;;;3.53;2.50;;;17.50;90.60;;;;;;5100172;27;20432;-73
2022/10/20 11:25:13;;;;;;;3.00;2.50;;;17.50;90.70;;;;;;5095818;28;20492;-74
2022/10/20 11:27:38;;;;;;;2.33;2.13;;;17.60;90.80;;;;;;5103520;28;20443;-74
2022/10/20 11:30:14;;;;;;;2.67;2.47;;;17.60;90.60;;;;;;5105434;28;20445;-73
2022/10/20 11:32:58;;;;;;;2.40;2.20;;;17.60;90.40;;;;;;5102526;28;20177;-73
2022/10/20 11:35:34;;;;;;;2.47;1.90;;;17.60;90.10;;;;;;5095222;28;20441;-74
2022/10/20 11:38:12;;;;;;;3.60;2.37;;;17.60;90.60;;;;;;5102394;28;20471;-72
2022/10/20 11:40:40;;;;;;;2.23;2.00;;;17.60;90.30;;;;;;5098259;28;20455;-74
2022/10/20 11:43:19;;;;;;;3.53;2.77;;;17.60;90.30;;;;;;5096140;28;20429;-72
2022/10/20 11:46:10;;;;;;;2.30;2.10;;;17.60;90.30;;;;;;5095391;28;20437;-72
2022/10/20 11:48:51;;;;;;;4.17;3.77;;;17.60;90.50;;;;;;5097503;28;20474;-73
2022/10/20 11:51:29;;;;;;;3.10;2.87;;;17.60;90.70;;;;;;5097219;28;20464;-74
2022/10/20 11:54:39;;;;;;;3.20;2.73;;;17.60;90.40;;;;;;5103158;28;21010;-73
2022/10/20 11:57:32;;;;;;;2.50;2.30;;;17.70;90.50;;;;;;5101958;28;20806;-72
2022/10/20 12:00:50;;;;;;;3.23;2.10;;;17.70;90.40;;;;;;5099089;28;20455;-73
2022/10/20 12:03:40;;;;;;;3.13;2.73;;;17.70;90.40;;;;;;5071015;28;20456;-72
2022/10/20 12:06:25;;;;;;;4.63;2.70;;;17.70;90.50;;;;;;5099319;28;21001;-72
2022/10/20 12:09:24;;;;;;;2.70;2.33;;;17.70;90.50;;;;;;5102316;28;20447;-73
2022/10/20 12:12:06;;;;;;;2.90;2.67;;;17.70;90.70;;;;;;5103455;28;20432;-73
2022/10/20 12:14:46;;;;;;;2.40;2.07;;;17.70;90.40;;;;;;5109617;28;20458;-73
2022/10/20 12:17:12;;;;;;;2.27;1.97;;;17.70;90.30;;;;;;5110370;28;20477;-72
2022/10/20 12:19:38;;;;;;;2.60;2.13;;;17.70;90.60;;;;;;5111844;28;20423;-73
2022/10/20 12:22:12;;;;;;;6.37;2.40;;;17.70;90.70;;;;;;5106182;28;20285;-73
2022/10/20 12:24:49;;;;;;;5.57;2.27;;;17.70;90.70;;;;;;5108856;28;20234;-73
2022/10/20 12:27:21;;;;;;;3.53;2.10;;;17.70;90.70;;;;;;5124223;28;20441;-72
2022/10/20 12:29:56;;;;;;;2.43;2.07;;;17.70;90.50;;;;;;5119604;28;20455;-73
2022/10/20 12:32:25;;;;;;;2.47;2.20;;;17.80;90.90;;;;;;5119239;28;20534;-73
2022/10/20 12:34:56;;;;;;;4.13;2.30;;;17.80;90.80;;;;;;5121294;28;20475;-73
2022/10/20 12:37:29;;;;;;;3.50;2.50;;;17.80;90.70;;;;;;5100741;28;21058;-73
2022/10/20 12:39:58;;;;;;;3.67;2.87;;;17.80;90.30;;;;;;5118376;28;20450;-73
2022/10/20 12:42:39;;;;;;;2.93;2.30;;;17.80;90.20;;;;;;5121011;28;20439;-73
2022/10/20 12:45:40;;;;;;;2.43;2.23;;;17.80;90.40;;;;;;5121836;28;20452;-77
2022/10/20 12:48:09;;;;;;;2.53;2.30;;;17.80;90.50;;;;;;5129499;27;20418;-73
2022/10/20 12:50:40;;;;;;;3.30;1.90;;;17.80;90.30;;;;;;5108275;27;20424;-73
2022/10/20 12:53:19;;;;;;;2.20;2.00;;;17.80;90.70;;;;;;5130054;27;20450;-72
2022/10/20 12:55:59;;;;;;;6.40;2.57;;;17.80;90.60;;;;;;5127641;27;20420;-74
2022/10/20 12:58:29;;;;;;;2.97;2.20;;;17.90;90.60;;;;;;5119825;27;20555;-73
2022/10/20 13:00:57;;;;;;;2.43;2.23;;;17.90;90.50;;;;;;5129045;27;20436;-74
2022/10/20 13:03:48;;;;;;;2.50;2.30;;;17.90;90.40;;;;;;5115528;27;20454;-73
2022/10/20 13:06:23;;;;;;;2.07;1.93;;;17.90;90.30;;;;;;5124250;27;20452;-73
2022/10/20 13:09:20;;;;;;;4.63;2.33;;;18.00;90.60;;;;;;5135264;27;20480;-72
2022/10/20 13:11:59;;;;;;;3.20;2.23;;;18.00;90.50;;;;;;5095964;27;20483;-73